Time;durP1;ratioP1;P1;durP2;ratioP2;P2;SDS_P1;SDS_P2;PMS_P1;PMS_P2;Temp;Humidity;BMP_temperature;BMP_pressure;BME280_temperature;BME280_humidity;BME280_pressure;Samples;Min_cycle;Max_cycle;Signal;HPM_P1;HPM_P2
2024/01/31 06:35:33;;;;;;;7.80;4.65;;;2.00;99.90;;;;;;5030749;28;22141;-35
2024/01/31 06:37:59;;;;;;;7.55;4.78;;;2.00;99.90;;;;;;5024855;28;20457;-35
2024/01/31 06:40:24;;;;;;;7.78;5.07;;;2.10;99.90;;;;;;5024421;28;20029;-32
2024/01/31 06:42:50;;;;;;;5.57;4.32;;;2.10;99.90;;;;;;5025234;28;20029;-32
2024/01/31 06:45:15;;;;;;;5.35;4.28;;;2.10;99.90;;;;;;5023863;28;20743;-32
2024/01/31 06:47:41;;;;;;;5.95;4.32;;;2.10;99.90;;;;;;5024138;28;20033;-35
2024/01/31 06:50:07;;;;;;;4.38;3.72;;;2.10;99.90;;;;;;5024195;28;20022;-34
2024/01/31 06:52:33;;;;;;;7.18;4.43;;;2.10;99.90;;;;;;5023927;28;20108;-35
2024/01/31 06:54:58;;;;;;;5.80;4.68;;;2.10;99.90;;;;;;5023763;28;20423;-32
2024/01/31 06:57:24;;;;;;;5.60;4.57;;;2.10;99.90;;;;;;5024303;28;20025;-34
2024/01/31 06:59:50;;;;;;;4.28;3.88;;;2.10;99.90;;;;;;5024198;28;20024;-37
2024/01/31 07:02:15;;;;;;;6.25;4.25;;;2.10;99.90;;;;;;5021020;28;20040;-38
2024/01/31 07:04:41;;;;;;;6.50;4.30;;;2.10;99.90;;;;;;5008833;28;20025;-36
2024/01/31 07:07:06;;;;;;;10.23;6.10;;;2.10;99.90;;;;;;5017398;28;20025;-40
2024/01/31 07:09:32;;;;;;;7.97;4.97;;;2.10;99.90;;;;;;5018407;28;20565;-40
2024/01/31 07:11:59;;;;;;;6.05;3.92;;;2.10;99.90;;;;;;5018470;28;20104;-39
2024/01/31 07:14:25;;;;;;;6.80;5.03;;;2.10;99.90;;;;;;5023757;28;20069;-39
2024/01/31 07:16:50;;;;;;;5.78;4.57;;;2.10;99.90;;;;;;5015653;28;20169;-37
2024/01/31 07:19:16;;;;;;;8.63;5.20;;;2.20;99.90;;;;;;5020965;28;20394;-39
2024/01/31 07:21:42;;;;;;;7.05;4.90;;;2.20;99.90;;;;;;5015648;28;20487;-39
2024/01/31 07:24:07;;;;;;;5.95;4.30;;;2.30;99.90;;;;;;5024219;28;20387;-37
2024/01/31 07:26:33;;;;;;;9.55;6.30;;;2.30;99.90;;;;;;5024321;28;20026;-37
2024/01/31 07:28:59;;;;;;;8.15;5.32;;;2.40;99.90;;;;;;5021580;28;20081;-39
2024/01/31 07:31:25;;;;;;;7.57;5.38;;;2.40;99.90;;;;;;5014760;28;20092;-39
2024/01/31 07:33:50;;;;;;;8.75;5.35;;;2.50;99.90;;;;;;5008706;28;20117;-39
2024/01/31 07:36:16;;;;;;;7.63;5.45;;;2.50;99.90;;;;;;4987905;28;20042;-38
2024/01/31 07:38:43;;;;;;;9.85;5.50;;;2.60;99.90;;;;;;5007605;28;20026;-38
2024/01/31 07:41:10;;;;;;;13.27;6.88;;;2.60;99.90;;;;;;5004630;28;20026;-37
2024/01/31 07:43:36;;;;;;;9.80;5.45;;;2.70;99.90;;;;;;5007632;28;20030;-40
2024/01/31 07:46:03;;;;;;;10.20;6.00;;;2.70;99.90;;;;;;5004906;28;20044;-39
2024/01/31 07:48:29;;;;;;;10.98;6.57;;;2.80;99.90;;;;;;5003408;28;20030;-38
2024/01/31 07:50:55;;;;;;;10.45;6.70;;;2.90;99.90;;;;;;5000800;28;20033;-38
2024/01/31 07:53:21;;;;;;;9.65;5.95;;;2.90;99.90;;;;;;5005689;28;20034;-37
2024/01/31 07:55:46;;;;;;;10.07;6.30;;;3.00;99.90;;;;;;5006171;28;20030;-40
2024/01/31 07:58:12;;;;;;;9.88;6.32;;;3.10;99.90;;;;;;5007949;28;20022;-38
2024/01/31 08:00:38;;;;;;;12.15;6.88;;;3.10;99.90;;;;;;5007866;28;20027;-40
2024/01/31 08:03:04;;;;;;;8.75;6.43;;;3.20;99.90;;;;;;5027616;28;20025;-40
2024/01/31 08:05:29;;;;;;;10.63;7.40;;;3.30;99.90;;;;;;5023066;28;20029;-40
2024/01/31 08:07:55;;;;;;;10.00;5.97;;;3.30;99.90;;;;;;5031798;28;20021;-36
2024/01/31 08:10:20;;;;;;;8.77;6.20;;;3.40;99.90;;;;;;5027957;28;20033;-39
2024/01/31 08:12:46;;;;;;;10.50;6.07;;;3.50;99.90;;;;;;5037363;28;20484;-32
2024/01/31 08:15:12;;;;;;;10.40;7.13;;;3.60;99.90;;;;;;5031596;28;20106;-34
2024/01/31 08:17:38;;;;;;;11.75;6.55;;;3.70;99.90;;;;;;5032611;28;20034;-32
2024/01/31 08:20:06;;;;;;;9.65;6.20;;;3.80;99.90;;;;;;5032801;28;20075;-32
2024/01/31 08:22:33;;;;;;;12.27;7.37;;;3.80;99.90;;;;;;5021659;28;20076;-35
2024/01/31 08:24:59;;;;;;;11.98;7.45;;;3.90;99.90;;;;;;5030360;28;20037;-34
2024/01/31 08:27:25;;;;;;;12.27;6.93;;;4.00;99.90;;;;;;5008591;28;20021;-32
2024/01/31 08:29:51;;;;;;;8.98;5.57;;;4.10;99.90;;;;;;5028298;28;20037;-34
2024/01/31 08:32:17;;;;;;;10.73;5.82;;;4.10;99.90;;;;;;5020890;28;20064;-32
2024/01/31 08:34:43;;;;;;;6.95;5.20;;;4.30;99.90;;;;;;5027550;28;20084;-35
2024/01/31 08:37:09;;;;;;;10.27;7.35;;;4.40;99.90;;;;;;5028655;28;20514;-33
2024/01/31 08:39:34;;;;;;;8.15;6.28;;;4.50;99.90;;;;;;5029848;28;20055;-32
2024/01/31 08:42:00;;;;;;;11.52;7.45;;;4.50;99.90;;;;;;5024968;28;20048;-34
2024/01/31 08:44:25;;;;;;;9.00;6.35;;;4.60;99.90;;;;;;5034061;28;20030;-32
2024/01/31 08:46:52;;;;;;;8.80;7.07;;;4.70;99.90;;;;;;5025425;28;20034;-33
2024/01/31 08:49:18;;;;;;;10.52;6.93;;;4.80;99.90;;;;;;5020103;28;20487;-34
2024/01/31 08:51:44;;;;;;;11.93;7.20;;;4.90;99.90;;;;;;5024114;28;20083;-35
2024/01/31 08:54:09;;;;;;;9.55;6.78;;;4.90;99.90;;;;;;5031183;28;20040;-33
2024/01/31 08:56:35;;;;;;;12.30;7.28;;;5.00;99.90;;;;;;5030856;28;20577;-33
2024/01/31 08:59:00;;;;;;;13.15;7.50;;;5.00;99.90;;;;;;5025207;28;20028;-33
2024/01/31 09:01:26;;;;;;;21.30;12.52;;;5.10;99.90;;;;;;5023741;28;20040;-33
2024/01/31 09:03:52;;;;;;;12.60;7.38;;;5.20;99.90;;;;;;5027468;28;20044;-34
2024/01/31 09:06:17;;;;;;;11.30;6.00;;;5.30;99.90;;;;;;5011751;28;20699;-33
2024/01/31 09:08:43;;;;;;;17.58;7.13;;;5.30;99.90;;;;;;5027664;28;20347;-35
2024/01/31 09:11:09;;;;;;;10.75;6.63;;;5.40;99.90;;;;;;5022872;28;20171;-33
2024/01/31 09:13:35;;;;;;;9.23;6.32;;;5.50;99.90;;;;;;5025082;28;20079;-32
2024/01/31 09:16:01;;;;;;;8.23;6.38;;;5.50;99.90;;;;;;5024366;28;20032;-34
2024/01/31 09:18:28;;;;;;;12.52;6.82;;;5.60;99.90;;;;;;5026827;28;20430;-32
2024/01/31 09:20:53;;;;;;;9.75;6.35;;;5.70;99.90;;;;;;5027857;28;20036;-35
2024/01/31 09:23:19;;;;;;;8.75;6.32;;;5.70;99.90;;;;;;5027578;28;20132;-34
2024/01/31 09:25:45;;;;;;;8.60;6.40;;;5.80;99.90;;;;;;5025820;28;20365;-34
2024/01/31 09:28:10;;;;;;;9.13;6.20;;;5.90;99.90;;;;;;5021920;28;20034;-32
2024/01/31 09:30:36;;;;;;;10.55;7.13;;;6.00;99.90;;;;;;5028146;28;21653;-40
2024/01/31 09:33:02;;;;;;;12.07;6.97;;;6.00;99.90;;;;;;5026466;28;20146;-37
2024/01/31 09:35:28;;;;;;;6.85;5.05;;;6.20;99.90;;;;;;5027605;28;20056;-38
2024/01/31 09:37:54;;;;;;;9.18;6.22;;;6.30;99.90;;;;;;5025608;28;20269;-37
2024/01/31 09:40:22;;;;;;;7.13;5.45;;;6.40;99.90;;;;;;5007735;28;20025;-33
2024/01/31 09:42:50;;;;;;;8.05;5.50;;;6.40;99.90;;;;;;5021823;28;20033;-39
2024/01/31 09:45:17;;;;;;;13.50;6.18;;;6.50;99.90;;;;;;5025648;28;20025;-38
2024/01/31 09:47:45;;;;;;;11.45;6.47;;;6.60;99.90;;;;;;5031341;28;20029;-37
2024/01/31 09:50:11;;;;;;;10.38;6.68;;;6.60;99.90;;;;;;5020511;28;20399;-40
2024/01/31 09:52:40;;;;;;;11.82;6.35;;;6.60;99.90;;;;;;5021030;28;20115;-39
2024/01/31 09:55:09;;;;;;;6.78;5.05;;;6.60;99.90;;;;;;5021826;28;20018;-39
2024/01/31 09:57:35;;;;;;;8.52;6.05;;;6.60;99.90;;;;;;5028974;28;20037;-38
2024/01/31 10:00:03;;;;;;;8.63;6.13;;;6.70;99.90;;;;;;5017615;28;20032;-40
2024/01/31 10:02:31;;;;;;;8.77;5.60;;;6.70;99.90;;;;;;5030308;28;20183;-39
2024/01/31 10:04:57;;;;;;;8.88;6.03;;;6.80;99.90;;;;;;5025615;28;20024;-39
2024/01/31 10:07:24;;;;;;;7.97;5.85;;;6.80;99.90;;;;;;5030683;28;20386;-38
2024/01/31 10:09:53;;;;;;;8.05;5.38;;;6.90;99.90;;;;;;5011665;28;20025;-39
2024/01/31 10:12:20;;;;;;;8.45;5.72;;;6.90;99.90;;;;;;5027716;28;20029;-39
2024/01/31 10:14:48;;;;;;;8.65;5.85;;;6.90;99.90;;;;;;5034553;28;20499;-39
2024/01/31 10:17:17;;;;;;;6.90;5.57;;;6.90;99.90;;;;;;5028880;28;20045;-38
2024/01/31 10:19:43;;;;;;;8.57;5.82;;;6.80;99.90;;;;;;5030563;28;20086;-37
2024/01/31 10:22:08;;;;;;;10.77;6.18;;;6.80;99.90;;;;;;5032466;28;20037;-35
2024/01/31 10:24:34;;;;;;;7.45;5.82;;;6.90;99.90;;;;;;5031513;28;20029;-39
2024/01/31 10:27:03;;;;;;;8.95;5.80;;;6.90;99.90;;;;;;5028967;28;20310;-37
2024/01/31 10:29:29;;;;;;;9.10;6.25;;;6.90;99.90;;;;;;5030309;28;20486;-39
2024/01/31 10:31:55;;;;;;;10.50;6.78;;;7.00;99.90;;;;;;5020307;28;20045;-37
2024/01/31 10:34:23;;;;;;;9.07;5.97;;;7.10;99.90;;;;;;5027069;28;20056;-34
2024/01/31 10:36:49;;;;;;;8.00;6.00;;;7.10;99.90;;;;;;5028138;28;20034;-38
2024/01/31 10:39:20;;;;;;;10.82;6.38;;;7.20;99.90;;;;;;5031198;28;20036;-40
2024/01/31 10:41:47;;;;;;;8.57;6.43;;;7.30;99.90;;;;;;5034411;28;20428;-32
2024/01/31 10:44:14;;;;;;;9.15;5.57;;;7.30;99.90;;;;;;5022981;28;20034;-34
2024/01/31 10:46:41;;;;;;;10.45;6.97;;;7.40;99.90;;;;;;5031811;28;20033;-36
2024/01/31 10:49:07;;;;;;;9.82;6.10;;;7.50;99.90;;;;;;5026746;28;20036;-33
2024/01/31 10:51:35;;;;;;;8.60;5.88;;;7.50;99.90;;;;;;5028699;28;20651;-34
2024/01/31 10:54:03;;;;;;;10.90;6.28;;;7.60;99.90;;;;;;5012903;28;20121;-33
2024/01/31 10:56:30;;;;;;;10.50;6.50;;;7.70;99.90;;;;;;5022732;28;20033;-35
2024/01/31 10:58:58;;;;;;;8.02;5.85;;;7.70;99.90;;;;;;5030257;28;20613;-37
2024/01/31 11:01:30;;;;;;;;;;;7.80;99.90;;;;;;5036728;28;20437;-35
2024/01/31 11:03:56;;;;;;;10.13;6.00;;;7.80;99.90;;;;;;5027794;28;20441;-36
2024/01/31 11:06:25;;;;;;;9.20;6.38;;;7.80;99.90;;;;;;5030976;28;20033;-36
2024/01/31 11:08:52;;;;;;;11.52;6.72;;;7.90;99.90;;;;;;5033336;28;20024;-35
2024/01/31 11:11:20;;;;;;;9.43;7.03;;;8.00;99.90;;;;;;5026085;28;20938;-33
2024/01/31 11:13:46;;;;;;;13.02;6.28;;;8.10;99.90;;;;;;5025716;28;20075;-34
2024/01/31 11:16:22;;;;;;;11.02;6.38;;;8.20;99.90;;;;;;5031064;28;20509;-32
2024/01/31 11:18:52;;;;;;;9.00;6.20;;;8.20;99.90;;;;;;5029262;28;20100;-33
2024/01/31 11:21:17;;;;;;;10.85;6.35;;;8.30;99.90;;;;;;5023328;28;20029;-33
2024/01/31 11:23:44;;;;;;;11.63;6.85;;;8.30;99.90;;;;;;5026035;28;20037;-35
2024/01/31 11:26:10;;;;;;;8.90;6.68;;;8.40;99.90;;;;;;5026195;28;20129;-34
2024/01/31 11:28:43;;;;;;;12.05;7.15;;;8.50;99.90;;;;;;5030366;28;20313;-33
2024/01/31 11:31:09;;;;;;;8.05;5.97;;;8.50;99.90;;;;;;5013079;28;20045;-33
2024/01/31 11:33:34;;;;;;;9.80;6.72;;;8.50;99.90;;;;;;5024023;28;20143;-35
2024/01/31 11:36:00;;;;;;;11.02;7.13;;;8.50;99.90;;;;;;5029818;28;20057;-36
2024/01/31 11:38:26;;;;;;;10.25;7.50;;;8.60;99.90;;;;;;5024303;28;20031;-34
2024/01/31 11:40:52;;;;;;;9.55;6.93;;;8.60;99.90;;;;;;5025070;28;20141;-34
2024/01/31 11:43:17;;;;;;;8.82;6.47;;;8.60;99.90;;;;;;5029137;28;20060;-34
2024/01/31 11:45:44;;;;;;;9.25;6.63;;;8.60;99.90;;;;;;5026476;28;20398;-35
2024/01/31 11:48:13;;;;;;;8.45;5.93;;;8.70;99.90;;;;;;5021021;28;20026;-34
2024/01/31 11:50:39;;;;;;;12.38;6.38;;;8.80;99.90;;;;;;5027006;28;20100;-33
2024/01/31 11:53:05;;;;;;;9.00;6.15;;;8.80;99.90;;;;;;5030454;28;20112;-32
2024/01/31 11:55:33;;;;;;;9.50;6.38;;;8.80;99.90;;;;;;5021881;28;20439;-34
2024/01/31 11:57:59;;;;;;;11.23;6.22;;;8.90;99.90;;;;;;5029296;28;20465;-35
2024/01/31 12:00:25;;;;;;;10.25;6.25;;;8.90;99.90;;;;;;5025310;28;20474;-41
2024/01/31 12:02:52;;;;;;;8.18;5.68;;;8.90;99.90;;;;;;5028009;28;20039;-33
2024/01/31 12:05:18;;;;;;;10.63;5.88;;;8.90;99.90;;;;;;5024996;28;20026;-32
2024/01/31 12:07:54;;;;;;;9.25;6.13;;;8.90;99.90;;;;;;5025918;28;20079;-32
2024/01/31 12:10:20;;;;;;;9.13;6.05;;;8.90;99.90;;;;;;5027736;28;20103;-33
2024/01/31 12:12:46;;;;;;;10.13;6.38;;;8.90;99.90;;;;;;5023672;28;20033;-32
2024/01/31 12:15:12;;;;;;;8.13;6.10;;;9.00;99.90;;;;;;5024148;28;20094;-32
2024/01/31 12:17:38;;;;;;;10.18;6.47;;;9.10;99.90;;;;;;5022711;28;20482;-32
2024/01/31 12:20:08;;;;;;;10.55;6.10;;;9.10;99.90;;;;;;5026811;28;20044;-35
2024/01/31 12:22:36;;;;;;;9.80;4.88;;;9.20;99.90;;;;;;5023565;28;20021;-32
2024/01/31 12:25:02;;;;;;;12.25;5.47;;;9.20;99.90;;;;;;5024061;28;20707;-33
2024/01/31 12:27:28;;;;;;;9.65;6.53;;;9.20;99.90;;;;;;5022349;28;20029;-34
2024/01/31 12:29:53;;;;;;;7.93;5.90;;;9.20;99.90;;;;;;5025758;28;20087;-31
2024/01/31 12:32:19;;;;;;;18.15;6.88;;;9.20;99.90;;;;;;5022113;28;20076;-31
2024/01/31 12:34:45;;;;;;;9.15;6.57;;;9.20;99.90;;;;;;5026499;28;20044;-32
2024/01/31 12:37:10;;;;;;;10.38;5.80;;;9.30;99.90;;;;;;5026888;28;20041;-32
2024/01/31 12:39:36;;;;;;;12.73;6.38;;;9.30;99.90;;;;;;5027726;28;20660;-32
2024/01/31 12:42:03;;;;;;;10.30;6.30;;;9.30;99.90;;;;;;5032385;28;20202;-32
2024/01/31 12:44:29;;;;;;;12.57;6.22;;;9.40;99.90;;;;;;5027666;28;20261;-34
2024/01/31 12:46:55;;;;;;;9.90;5.97;;;9.40;99.90;;;;;;5025119;28;20378;-38
2024/01/31 12:49:21;;;;;;;12.38;5.57;;;9.40;99.90;;;;;;5030541;28;20450;-32
2024/01/31 12:51:46;;;;;;;8.15;5.28;;;9.40;99.90;;;;;;5033680;28;20094;-33
2024/01/31 12:54:12;;;;;;;8.10;5.68;;;9.50;99.90;;;;;;5027844;28;20064;-34
2024/01/31 12:56:41;;;;;;;12.48;5.95;;;9.50;99.90;;;;;;5026957;28;20029;-32
2024/01/31 12:59:07;;;;;;;9.02;5.85;;;9.60;99.90;;;;;;5027997;28;20087;-34
2024/01/31 13:01:33;;;;;;;9.13;5.95;;;9.60;99.90;;;;;;5023352;28;20495;-40
2024/01/31 13:03:58;;;;;;;7.53;5.43;;;9.70;99.90;;;;;;5027482;28;20100;-40
2024/01/31 13:06:24;;;;;;;7.72;5.47;;;9.60;99.90;;;;;;5029696;28;20037;-39
2024/01/31 13:08:50;;;;;;;8.98;5.65;;;9.60;99.90;;;;;;5025213;28;20431;-42
2024/01/31 13:11:15;;;;;;;10.57;6.18;;;9.60;99.90;;;;;;5022561;28;20037;-34
2024/01/31 13:13:41;;;;;;;8.07;5.95;;;9.60;99.90;;;;;;5025844;28;20872;-35
2024/01/31 13:16:08;;;;;;;9.80;5.90;;;9.70;99.90;;;;;;5029494;28;20099;-41
2024/01/31 13:18:33;;;;;;;7.93;5.53;;;9.70;99.90;;;;;;5026941;28;20522;-35
2024/01/31 13:20:59;;;;;;;9.45;5.78;;;9.80;99.90;;;;;;5027495;28;20052;-42
2024/01/31 13:23:25;;;;;;;8.10;5.85;;;9.80;99.90;;;;;;5024202;28;20486;-41
2024/01/31 13:25:51;;;;;;;7.28;5.70;;;9.80;99.90;;;;;;5028911;28;20017;-43
2024/01/31 13:28:16;;;;;;;8.55;6.25;;;9.80;99.90;;;;;;5025174;28;20037;-42
2024/01/31 13:30:43;;;;;;;12.80;5.78;;;9.80;99.90;;;;;;5024887;28;20029;-37
2024/01/31 13:33:09;;;;;;;10.73;6.13;;;9.90;99.90;;;;;;5026734;28;20042;-42
2024/01/31 13:35:34;;;;;;;7.07;5.35;;;9.90;99.90;;;;;;5027683;28;20068;-39
2024/01/31 13:38:00;;;;;;;7.45;5.45;;;9.90;99.90;;;;;;5024893;28;20072;-39
2024/01/31 13:40:26;;;;;;;9.32;5.93;;;10.00;99.90;;;;;;5025394;28;20446;-42
2024/01/31 13:42:51;;;;;;;8.93;5.53;;;10.00;99.90;;;;;;5032117;28;20018;-41
2024/01/31 13:45:18;;;;;;;9.93;6.43;;;10.00;99.90;;;;;;5030979;28;20521;-39
2024/01/31 13:47:44;;;;;;;9.43;5.60;;;10.00;99.90;;;;;;5017464;28;20366;-37
2024/01/31 13:50:10;;;;;;;9.85;6.53;;;10.00;99.90;;;;;;5035178;28;20083;-42
2024/01/31 13:52:36;;;;;;;9.20;5.63;;;10.00;99.90;;;;;;5020035;28;20029;-42
2024/01/31 13:55:02;;;;;;;9.52;6.00;;;10.10;99.90;;;;;;5009316;28;20343;-41
2024/01/31 13:57:27;;;;;;;8.45;5.70;;;10.10;99.90;;;;;;5030332;28;20418;-41
2024/01/31 13:59:53;;;;;;;9.77;6.20;;;10.20;99.90;;;;;;5030349;28;20037;-36
2024/01/31 14:02:19;;;;;;;9.48;6.03;;;10.20;99.90;;;;;;5025902;28;20037;-43
2024/01/31 14:04:45;;;;;;;8.10;5.55;;;10.20;99.90;;;;;;5032602;28;20045;-39
2024/01/31 14:07:11;;;;;;;8.55;6.07;;;10.20;99.90;;;;;;5031396;28;20072;-42
2024/01/31 14:09:37;;;;;;;8.80;5.65;;;10.20;99.90;;;;;;5032223;28;20498;-39
2024/01/31 14:12:03;;;;;;;9.93;6.07;;;10.20;99.90;;;;;;5028450;28;20057;-34
2024/01/31 14:14:30;;;;;;;10.77;6.70;;;10.20;99.90;;;;;;5028514;28;20659;-33
2024/01/31 14:16:57;;;;;;;8.13;6.10;;;10.20;99.90;;;;;;5027871;28;20475;-35
2024/01/31 14:19:22;;;;;;;11.35;6.25;;;10.30;99.90;;;;;;5026989;28;20503;-33
2024/01/31 14:21:48;;;;;;;12.35;5.72;;;10.20;99.90;;;;;;5023259;28;20061;-39
2024/01/31 14:24:14;;;;;;;8.52;5.88;;;10.30;99.90;;;;;;5028119;28;20506;-39
2024/01/31 14:26:40;;;;;;;9.85;6.53;;;10.20;99.90;;;;;;5025313;28;20037;-37
2024/01/31 14:29:06;;;;;;;7.78;5.55;;;10.20;99.90;;;;;;5021958;28;20128;-40
2024/01/31 14:31:32;;;;;;;13.30;6.28;;;10.20;99.90;;;;;;5021333;28;20052;-40
2024/01/31 14:33:58;;;;;;;8.75;6.40;;;10.20;99.90;;;;;;5020667;28;20382;-41
2024/01/31 14:36:25;;;;;;;7.90;5.53;;;10.20;99.90;;;;;;5023917;28;20097;-39
2024/01/31 14:38:50;;;;;;;8.50;6.47;;;10.10;99.90;;;;;;5024346;28;20160;-39
2024/01/31 14:41:16;;;;;;;8.70;5.55;;;10.10;99.90;;;;;;5032570;28;20113;-40
2024/01/31 14:43:42;;;;;;;10.52;6.40;;;10.10;99.90;;;;;;5033556;28;20116;-38
2024/01/31 14:46:08;;;;;;;9.77;6.60;;;10.10;99.90;;;;;;5028439;28;20037;-40
2024/01/31 14:48:34;;;;;;;11.68;7.75;;;10.00;99.90;;;;;;5031177;28;20029;-35
2024/01/31 14:50:59;;;;;;;12.15;8.18;;;10.00;99.90;;;;;;5023516;28;20033;-40
2024/01/31 14:53:25;;;;;;;15.88;11.60;;;10.00;99.90;;;;;;5027021;28;20021;-40
2024/01/31 14:55:51;;;;;;;13.38;9.77;;;10.00;99.90;;;;;;5020165;28;20400;-39
2024/01/31 14:58:17;;;;;;;11.50;6.68;;;9.90;99.90;;;;;;5028021;28;20087;-40
2024/01/31 15:00:42;;;;;;;9.88;7.03;;;9.90;99.90;;;;;;5027039;28;20025;-38
2024/01/31 15:03:08;;;;;;;10.57;6.60;;;9.90;99.90;;;;;;5027006;28;20025;-41
2024/01/31 15:05:34;;;;;;;10.30;6.50;;;9.90;99.90;;;;;;5031426;28;20112;-39
2024/01/31 15:07:59;;;;;;;13.13;6.95;;;9.90;99.90;;;;;;5027009;28;20022;-40
2024/01/31 15:10:25;;;;;;;12.75;6.53;;;10.00;99.90;;;;;;5026566;28;20040;-41
2024/01/31 15:12:52;;;;;;;15.13;7.05;;;9.90;99.90;;;;;;5026753;28;20107;-39
2024/01/31 15:15:18;;;;;;;12.15;6.55;;;10.00;99.90;;;;;;5023872;28;20034;-40
2024/01/31 15:17:43;;;;;;;13.50;7.30;;;10.00;99.90;;;;;;5028952;28;20386;-40
2024/01/31 15:20:10;;;;;;;16.42;6.82;;;10.00;99.90;;;;;;5028158;28;20104;-40
2024/01/31 15:22:36;;;;;;;12.15;6.93;;;9.90;99.90;;;;;;5024156;28;20037;-40
2024/01/31 15:25:02;;;;;;;12.82;7.07;;;9.90;99.90;;;;;;5028917;28;20655;-40
2024/01/31 15:27:28;;;;;;;11.48;6.50;;;9.90;99.90;;;;;;5024059;28;20030;-41
2024/01/31 15:29:54;;;;;;;9.73;6.43;;;9.90;99.90;;;;;;5027421;28;20060;-41
2024/01/31 15:32:20;;;;;;;12.07;5.93;;;9.90;99.90;;;;;;5025038;28;20064;-35
2024/01/31 15:34:45;;;;;;;12.45;6.10;;;9.80;99.90;;;;;;5024898;28;20079;-34
2024/01/31 15:37:11;;;;;;;11.02;6.53;;;9.80;99.90;;;;;;5028330;28;20040;-34
2024/01/31 15:39:36;;;;;;;11.10;6.68;;;9.80;99.90;;;;;;5030011;28;20092;-33
2024/01/31 15:42:03;;;;;;;9.30;5.90;;;9.70;99.90;;;;;;5028274;28;20031;-33
2024/01/31 15:44:28;;;;;;;9.27;6.70;;;9.70;99.90;;;;;;5031901;28;20053;-33
2024/01/31 15:46:54;;;;;;;9.45;6.57;;;9.70;99.90;;;;;;5018484;28;21759;-37
2024/01/31 15:49:28;;;;;;;10.32;6.85;;;9.50;99.90;;;;;;5029286;28;20569;-32
2024/01/31 15:51:53;;;;;;;15.00;6.88;;;9.30;99.90;;;;;;5023520;28;20432;-32
2024/01/31 15:54:19;;;;;;;9.38;6.35;;;9.20;99.90;;;;;;5025189;28;20025;-32
2024/01/31 15:56:45;;;;;;;12.13;6.80;;;9.20;99.90;;;;;;5027340;28;20524;-35
2024/01/31 15:59:11;;;;;;;9.45;6.03;;;9.20;99.90;;;;;;5029051;28;20029;-36
2024/01/31 16:01:36;;;;;;;9.32;5.95;;;9.20;99.90;;;;;;5027555;28;20044;-32
2024/01/31 16:04:02;;;;;;;17.15;9.07;;;9.20;99.90;;;;;;5022170;28;20379;-34
2024/01/31 16:06:28;;;;;;;10.80;6.50;;;9.20;99.90;;;;;;5029244;28;20025;-33
2024/01/31 16:08:54;;;;;;;8.82;6.82;;;9.00;99.90;;;;;;5025294;28;20036;-32
2024/01/31 16:11:19;;;;;;;11.32;7.15;;;8.80;99.90;;;;;;5027919;28;20482;-34
2024/01/31 16:13:45;;;;;;;12.88;7.45;;;8.70;99.90;;;;;;5019196;28;20091;-32
2024/01/31 16:16:11;;;;;;;13.10;8.27;;;8.70;99.90;;;;;;5025819;28;20036;-31
2024/01/31 16:18:36;;;;;;;21.83;8.73;;;8.80;99.90;;;;;;5008675;28;20021;-32
2024/01/31 16:21:03;;;;;;;15.05;8.65;;;8.70;99.90;;;;;;5026470;28;20029;-33
2024/01/31 16:23:31;;;;;;;20.92;11.75;;;8.70;99.90;;;;;;5027790;28;20097;-33
2024/01/31 16:25:57;;;;;;;55.35;43.45;;;8.70;99.90;;;;;;5026998;28;20472;-33
2024/01/31 16:28:23;;;;;;;23.02;15.75;;;8.70;99.90;;;;;;5020570;28;21386;-38
2024/01/31 16:30:53;;;;;;;18.15;11.40;;;8.70;99.90;;;;;;5018386;28;20038;-32
2024/01/31 16:33:20;;;;;;;18.75;12.38;;;8.70;99.90;;;;;;5007054;28;20033;-32
2024/01/31 16:35:46;;;;;;;15.30;10.23;;;8.70;99.90;;;;;;5005032;28;20525;-35
2024/01/31 16:38:15;;;;;;;18.13;11.23;;;8.70;99.90;;;;;;4996923;28;20462;-34
2024/01/31 16:40:40;;;;;;;14.93;10.52;;;8.70;99.90;;;;;;5005147;28;20054;-36
2024/01/31 16:43:06;;;;;;;16.33;10.15;;;8.60;99.90;;;;;;5006508;28;20491;-32
2024/01/31 16:45:32;;;;;;;13.85;9.68;;;8.50;99.90;;;;;;5007431;28;20148;-33
2024/01/31 16:47:58;;;;;;;11.90;8.32;;;8.50;99.90;;;;;;5010658;28;20033;-35
2024/01/31 16:50:24;;;;;;;15.75;8.75;;;8.40;99.90;;;;;;5001769;28;20022;-33
2024/01/31 16:52:50;;;;;;;13.52;8.63;;;8.30;99.90;;;;;;5003118;28;20026;-33
2024/01/31 16:55:15;;;;;;;19.38;9.93;;;8.10;99.90;;;;;;5003819;28;20063;-35
2024/01/31 16:57:41;;;;;;;24.27;10.70;;;8.10;99.90;;;;;;5005867;28;20030;-35
2024/01/31 17:00:07;;;;;;;32.75;12.82;;;8.00;99.90;;;;;;5007715;28;20539;-34
2024/01/31 17:02:33;;;;;;;45.75;13.73;;;7.90;99.90;;;;;;5028353;28;20035;-32
2024/01/31 17:04:59;;;;;;;29.58;10.75;;;7.90;99.90;;;;;;5019774;28;20097;-35
2024/01/31 17:07:24;;;;;;;22.70;10.95;;;7.80;99.90;;;;;;5026225;28;20025;-33
2024/01/31 17:09:50;;;;;;;23.33;10.23;;;7.60;99.90;;;;;;5025517;28;20040;-33
2024/01/31 17:12:16;;;;;;;18.08;8.98;;;7.20;99.90;;;;;;5021695;28;20108;-35
2024/01/31 17:14:42;;;;;;;14.73;9.40;;;7.10;99.90;;;;;;5019457;28;20038;-36
2024/01/31 17:17:10;;;;;;;15.80;9.80;;;7.00;99.90;;;;;;5019549;28;20037;-32
2024/01/31 17:19:35;;;;;;;18.92;10.05;;;7.00;99.90;;;;;;5022519;28;20196;-33
2024/01/31 17:22:01;;;;;;;21.45;12.45;;;7.00;99.90;;;;;;5024382;28;20076;-33
2024/01/31 17:24:27;;;;;;;24.60;16.50;;;6.90;99.90;;;;;;5026896;28;20115;-32
2024/01/31 17:26:52;;;;;;;22.80;15.20;;;6.70;99.90;;;;;;5019649;28;20044;-35
2024/01/31 17:29:18;;;;;;;20.90;15.05;;;6.80;99.90;;;;;;5026944;28;20033;-33
2024/01/31 17:31:44;;;;;;;21.00;11.68;;;6.80;99.90;;;;;;5023433;28;20033;-34
2024/01/31 17:34:09;;;;;;;20.58;13.13;;;6.70;99.90;;;;;;5022605;28;20042;-32
2024/01/31 17:36:35;;;;;;;23.77;15.15;;;6.60;99.90;;;;;;5022634;28;20052;-33
2024/01/31 17:39:00;;;;;;;17.63;9.50;;;6.60;99.90;;;;;;5023162;28;20738;-32
2024/01/31 17:41:26;;;;;;;16.98;11.13;;;6.50;99.90;;;;;;5024544;28;20021;-32
2024/01/31 17:43:52;;;;;;;14.75;9.50;;;6.50;99.90;;;;;;5026954;28;20025;-33
2024/01/31 17:46:19;;;;;;;19.70;9.93;;;6.50;99.90;;;;;;5025412;28;20026;-34
2024/01/31 17:48:45;;;;;;;17.02;9.65;;;6.40;99.90;;;;;;5024839;28;20056;-33
2024/01/31 17:51:10;;;;;;;12.90;8.35;;;6.40;99.90;;;;;;5023232;28;20071;-32
2024/01/31 17:53:36;;;;;;;16.23;8.23;;;6.20;99.90;;;;;;5023445;28;20165;-34
2024/01/31 17:56:04;;;;;;;14.65;8.10;;;5.90;99.90;;;;;;5024017;28;20025;-36
2024/01/31 17:58:30;;;;;;;11.68;8.05;;;5.80;99.90;;;;;;5023187;28;20558;-34
2024/01/31 18:00:55;;;;;;;14.20;7.80;;;5.70;99.90;;;;;;5024386;28;20030;-37
2024/01/31 18:03:21;;;;;;;13.07;8.23;;;5.80;99.90;;;;;;5006477;28;20031;-40
2024/01/31 18:05:46;;;;;;;15.65;9.60;;;5.70;99.90;;;;;;5021306;28;20029;-40
2024/01/31 18:08:12;;;;;;;16.23;10.57;;;5.50;99.90;;;;;;5022376;28;20203;-40
2024/01/31 18:10:39;;;;;;;14.82;8.88;;;5.40;99.90;;;;;;5026368;28;20135;-41
2024/01/31 18:13:05;;;;;;;15.80;8.68;;;5.30;99.90;;;;;;5021222;28;20063;-34
2024/01/31 18:15:31;;;;;;;16.80;9.48;;;5.20;99.90;;;;;;5025467;28;20033;-32
2024/01/31 18:17:56;;;;;;;39.47;15.88;;;5.20;99.90;;;;;;5019626;28;20052;-35
2024/01/31 18:20:22;;;;;;;12.13;7.78;;;5.20;99.90;;;;;;5023709;28;20032;-33
2024/01/31 18:22:47;;;;;;;17.38;8.85;;;5.20;99.90;;;;;;5025570;28;20091;-32
2024/01/31 18:25:13;;;;;;;15.50;8.95;;;5.20;99.90;;;;;;5027022;28;20033;-32
2024/01/31 18:27:41;;;;;;;48.00;19.05;;;5.20;99.90;;;;;;5023327;28;20043;-32
2024/01/31 18:30:08;;;;;;;34.33;15.38;;;5.10;99.90;;;;;;5027062;28;20091;-33
2024/01/31 18:32:33;;;;;;;17.08;10.60;;;5.00;99.90;;;;;;5025308;28;20446;-32
2024/01/31 18:34:59;;;;;;;28.88;12.00;;;5.10;99.90;;;;;;5031727;28;20102;-32
2024/01/31 18:37:25;;;;;;;16.98;9.35;;;5.00;99.90;;;;;;5024933;28;20528;-33
2024/01/31 18:39:50;;;;;;;19.58;9.95;;;4.90;99.90;;;;;;5024700;28;20042;-32
2024/01/31 18:42:16;;;;;;;16.80;9.52;;;4.90;99.90;;;;;;5029725;28;20458;-36
2024/01/31 18:44:41;;;;;;;13.38;8.88;;;4.70;99.90;;;;;;5026311;28;20116;-33
2024/01/31 18:47:07;;;;;;;10.23;7.03;;;4.60;99.90;;;;;;5031398;28;20044;-33
2024/01/31 18:49:33;;;;;;;7.85;6.25;;;4.10;99.90;;;;;;5011627;28;22247;-35
2024/01/31 18:51:58;;;;;;;10.18;6.55;;;3.90;99.90;;;;;;5029697;28;20037;-35
2024/01/31 18:54:24;;;;;;;11.18;6.78;;;3.60;99.90;;;;;;5031144;28;20025;-33
2024/01/31 18:56:49;;;;;;;8.95;6.70;;;3.60;99.90;;;;;;5030135;28;20541;-33
2024/01/31 18:59:15;;;;;;;8.15;6.40;;;3.70;99.90;;;;;;5027796;28;20598;-34
2024/01/31 19:01:41;;;;;;;13.88;7.55;;;3.70;99.90;;;;;;5027941;28;20171;-33
2024/01/31 19:04:06;;;;;;;11.23;6.78;;;3.80;99.90;;;;;;5028045;28;20099;-32
2024/01/31 19:06:33;;;;;;;10.55;7.57;;;3.80;99.90;;;;;;5030124;28;20033;-34
2024/01/31 19:08:58;;;;;;;10.63;7.95;;;3.80;99.90;;;;;;5029653;28;20474;-32
2024/01/31 19:11:25;;;;;;;15.05;9.63;;;3.70;99.90;;;;;;5027851;28;20052;-34
2024/01/31 19:13:56;;;;;;;13.88;8.90;;;3.70;99.90;;;;;;5026761;28;20044;-34
2024/01/31 19:16:22;;;;;;;13.60;8.90;;;3.60;99.90;;;;;;5021304;28;20104;-33
2024/01/31 19:18:50;;;;;;;18.42;8.00;;;3.60;99.90;;;;;;5025953;28;20035;-35